createdAt,value
2022-12-03T00:02:11.883Z,95987.59
2022-12-03T00:04:38.306Z,95983.38
2022-12-03T00:07:04.924Z,95987.81
2022-12-03T00:09:31.377Z,95997.59
2022-12-03T00:11:57.774Z,95984.56
2022-12-03T00:14:24.116Z,95979.59
2022-12-03T00:16:50.467Z,95970.94
2022-12-03T00:19:16.823Z,95967.19
2022-12-03T00:21:43.211Z,95961.13
2022-12-03T00:24:09.569Z,95968.06
2022-12-03T00:26:35.975Z,95968.72
2022-12-03T00:29:02.358Z,95972.03
2022-12-03T00:31:28.791Z,95982.53
2022-12-03T00:33:55.171Z,95991.50
2022-12-03T00:36:21.550Z,95994.78
2022-12-03T00:38:47.957Z,95997.69
2022-12-03T00:41:14.388Z,95995.63
2022-12-03T00:43:40.747Z,95997.28
2022-12-03T00:46:07.142Z,96002.00
2022-12-03T00:48:33.569Z,96000.03
2022-12-03T00:50:59.908Z,95998.97
2022-12-03T00:53:26.295Z,95989.63
2022-12-03T00:55:52.708Z,95990.41
2022-12-03T00:58:19.090Z,95988.72
2022-12-03T01:00:45.480Z,95993.00
2022-12-03T01:03:11.856Z,95994.00
2022-12-03T01:05:38.211Z,96007.31
2022-12-03T01:08:04.681Z,96002.56
2022-12-03T01:10:31.099Z,95998.00
2022-12-03T01:12:57.457Z,95996.81
2022-12-03T01:15:23.838Z,95994.53
2022-12-03T01:17:50.239Z,95994.78
2022-12-03T01:20:16.624Z,95994.88
2022-12-03T01:22:43.013Z,95997.66
2022-12-03T01:25:09.358Z,95987.75
2022-12-03T01:27:35.736Z,96002.44
2022-12-03T01:30:02.141Z,95991.09
2022-12-03T01:32:28.487Z,95981.31
2022-12-03T01:34:55.279Z,95972.50
2022-12-03T01:37:21.979Z,95980.44
2022-12-03T01:39:48.361Z,95985.44
2022-12-03T01:42:14.717Z,95978.44
2022-12-03T01:44:41.112Z,95969.84
2022-12-03T01:47:07.559Z,95978.28
2022-12-03T01:49:33.976Z,95982.22
2022-12-03T01:52:00.364Z,95981.31
2022-12-03T01:54:26.722Z,95983.09
2022-12-03T01:56:53.075Z,95981.09
2022-12-03T01:59:19.420Z,95985.53
2022-12-03T02:01:45.843Z,95980.91
2022-12-03T02:04:12.267Z,95985.25
2022-12-03T02:06:38.717Z,95981.38
2022-12-03T02:09:05.058Z,95979.03
2022-12-03T02:11:31.385Z,95979.78
2022-12-03T02:13:57.794Z,95990.41
2022-12-03T02:16:24.216Z,95980.44
2022-12-03T02:18:50.663Z,95983.13
2022-12-03T02:21:17.077Z,95984.56
2022-12-03T02:23:43.429Z,95975.97
2022-12-03T02:26:09.807Z,95979.13
2022-12-03T02:28:36.156Z,95992.50
2022-12-03T02:31:02.580Z,96000.91
2022-12-03T02:33:29.003Z,96001.81
2022-12-03T02:35:59.105Z,95996.34
2022-12-03T02:38:28.415Z,96009.28
2022-12-03T02:40:54.766Z,96020.72
2022-12-03T02:43:21.138Z,96013.94
2022-12-03T02:45:47.487Z,96010.03
2022-12-03T02:48:13.862Z,96009.91
2022-12-03T02:50:40.274Z,95992.66
2022-12-03T02:53:06.632Z,95996.13
2022-12-03T02:55:48.047Z,95994.78
2022-12-03T02:58:14.442Z,95998.56
2022-12-03T03:00:40.848Z,95994.63
2022-12-03T03:03:07.256Z,96000.59
2022-12-03T03:05:33.617Z,96005.13
2022-12-03T03:08:00.133Z,95998.41
2022-12-03T03:10:26.595Z,96001.16
2022-12-03T03:12:52.987Z,95990.19
2022-12-03T03:15:19.384Z,96000.75
2022-12-03T03:17:45.735Z,96003.19
2022-12-03T03:20:12.091Z,96009.03
2022-12-03T03:22:38.473Z,96005.53
2022-12-03T03:25:04.863Z,96000.63
2022-12-03T03:27:31.259Z,96003.56
2022-12-03T03:29:57.606Z,95992.25
2022-12-03T03:32:23.983Z,95996.38
2022-12-03T03:34:50.524Z,96000.91
2022-12-03T03:37:16.935Z,96010.75
2022-12-03T03:39:43.279Z,96007.97
2022-12-03T03:42:09.632Z,96003.63
2022-12-03T03:44:35.967Z,95994.91
2022-12-03T03:47:02.349Z,95987.38
2022-12-03T03:49:28.749Z,95992.22
2022-12-03T03:51:55.096Z,95989.72
2022-12-03T03:54:21.446Z,96000.59
2022-12-03T03:56:47.780Z,95990.34
2022-12-03T03:59:14.159Z,95989.78
2022-12-03T04:01:40.600Z,95998.69
2022-12-03T04:04:07.055Z,95986.72
2022-12-03T04:06:33.450Z,95991.88
2022-12-03T04:08:59.806Z,95996.16
2022-12-03T04:11:26.206Z,95989.03
2022-12-03T04:13:52.597Z,95992.03
2022-12-03T04:16:19.035Z,95990.53
2022-12-03T04:18:45.444Z,95983.81
2022-12-03T04:21:11.845Z,95987.69
2022-12-03T04:23:38.238Z,95988.59
2022-12-03T04:26:04.576Z,95983.56
2022-12-03T04:28:30.903Z,95978.47
2022-12-03T04:30:57.298Z,95984.19
2022-12-03T04:33:23.722Z,95989.56
2022-12-03T04:35:50.160Z,95993.47
2022-12-03T04:38:16.581Z,95997.06
2022-12-03T04:40:42.961Z,95997.41
2022-12-03T04:43:09.342Z,95999.50
2022-12-03T04:45:35.822Z,95981.06
2022-12-03T04:48:02.224Z,95990.00
2022-12-03T04:50:28.614Z,95997.59
2022-12-03T04:52:54.972Z,96003.47
2022-12-03T04:55:21.302Z,95996.25
2022-12-03T04:57:47.643Z,95994.97
2022-12-03T05:00:13.991Z,95987.91
2022-12-03T05:02:40.436Z,95994.41
2022-12-03T05:05:06.872Z,95997.41
2022-12-03T05:07:33.308Z,95993.50
2022-12-03T05:09:59.749Z,95998.94
2022-12-03T05:12:26.097Z,95996.53
2022-12-03T05:14:52.689Z,95995.53
2022-12-03T05:17:19.254Z,95987.16
2022-12-03T05:19:45.583Z,95988.16
2022-12-03T05:22:11.975Z,95989.16
2022-12-03T05:24:38.357Z,95990.09
2022-12-03T05:27:04.703Z,95984.38
2022-12-03T05:29:31.047Z,95986.81
2022-12-03T05:31:57.429Z,95993.03
2022-12-03T05:34:23.838Z,95993.66
2022-12-03T05:36:50.227Z,95980.69
2022-12-03T05:39:16.582Z,95976.53
2022-12-03T05:41:42.914Z,95976.94
2022-12-03T05:44:09.289Z,95965.22
2022-12-03T05:46:35.701Z,95959.16
2022-12-03T05:49:02.114Z,95952.97
2022-12-03T05:51:28.509Z,95953.00
2022-12-03T05:53:54.870Z,95948.88
2022-12-03T05:56:21.241Z,95947.63
2022-12-03T05:58:47.698Z,95943.88
2022-12-03T06:01:14.051Z,95956.75
2022-12-03T06:03:40.560Z,95962.09
2022-12-03T06:06:07.054Z,95952.47
2022-12-03T06:08:33.418Z,95955.66
2022-12-03T06:10:59.761Z,95948.84
2022-12-03T06:13:26.109Z,95955.22
2022-12-03T06:15:52.542Z,95955.69
2022-12-03T06:18:18.931Z,95964.59
2022-12-03T06:20:45.314Z,95971.22
2022-12-03T06:23:11.692Z,95968.31
2022-12-03T06:25:38.046Z,95973.59
2022-12-03T06:28:04.427Z,95974.97
2022-12-03T06:30:30.782Z,95955.81
2022-12-03T06:32:57.110Z,95967.00
2022-12-03T06:35:23.474Z,95975.19
2022-12-03T06:37:49.808Z,95970.00
2022-12-03T06:40:16.164Z,95981.06
2022-12-03T06:42:42.498Z,95982.34
2022-12-03T06:45:08.881Z,95984.13
2022-12-03T06:47:35.341Z,95987.91
2022-12-03T06:50:01.693Z,95979.72
2022-12-03T06:52:28.062Z,95985.03
2022-12-03T06:54:54.638Z,95991.78
2022-12-03T06:57:21.153Z,95985.69
2022-12-03T06:59:47.507Z,95982.34
2022-12-03T07:02:13.943Z,95988.34
2022-12-03T07:04:44.808Z,95985.75
2022-12-03T07:07:12.695Z,95995.75
2022-12-03T07:09:39.079Z,95983.50
2022-12-03T07:12:05.480Z,95984.91
2022-12-03T07:14:31.839Z,95988.59
2022-12-03T07:16:58.171Z,95983.50
2022-12-03T07:19:30.700Z,95985.03
2022-12-03T07:21:58.790Z,95984.22
2022-12-03T07:24:25.160Z,95987.31
2022-12-03T07:26:51.510Z,95973.81
2022-12-03T07:29:18.034Z,95972.25
2022-12-03T07:31:44.518Z,95975.81
2022-12-03T07:34:10.939Z,95978.88
2022-12-03T07:36:37.293Z,95980.56
2022-12-03T07:39:03.688Z,95979.56
2022-12-03T07:41:30.038Z,95990.16
2022-12-03T07:43:56.381Z,95973.59
2022-12-03T07:46:22.779Z,95970.56
2022-12-03T07:48:49.161Z,95958.03
2022-12-03T07:51:15.792Z,95969.88
2022-12-03T07:53:42.189Z,95968.06
2022-12-03T07:56:08.590Z,95967.81
2022-12-03T07:58:34.940Z,95956.25
2022-12-03T08:01:01.409Z,95960.22
2022-12-03T08:03:27.845Z,95952.09
2022-12-03T08:05:54.238Z,95952.25
2022-12-03T08:08:20.674Z,95960.63
2022-12-03T08:10:47.061Z,95958.63
2022-12-03T08:13:13.406Z,95955.31
2022-12-03T08:15:39.930Z,95947.44
2022-12-03T08:18:06.297Z,95946.19
2022-12-03T08:20:32.667Z,95954.31
2022-12-03T08:22:59.086Z,95952.00
2022-12-03T08:25:25.434Z,95956.19
2022-12-03T08:27:51.780Z,95945.66
2022-12-03T08:30:18.157Z,95946.56
2022-12-03T08:32:44.516Z,95951.91
2022-12-03T08:35:10.901Z,95949.59
2022-12-03T08:37:37.266Z,95940.63
2022-12-03T08:40:03.637Z,95942.94
2022-12-03T08:42:30.399Z,95949.63
2022-12-03T08:44:57.429Z,95950.44
2022-12-03T08:47:24.053Z,95947.44
2022-12-03T08:49:50.462Z,95946.19
2022-12-03T08:52:16.850Z,95935.47
2022-12-03T08:54:43.207Z,95931.72
2022-12-03T08:57:09.586Z,95931.84
2022-12-03T08:59:35.987Z,95924.03
2022-12-03T09:02:02.327Z,95925.59
2022-12-03T09:04:28.748Z,95925.56
2022-12-03T09:06:55.169Z,95940.16
2022-12-03T09:09:21.525Z,95940.16
2022-12-03T09:11:47.923Z,95940.50
2022-12-03T09:14:18.443Z,95948.75
2022-12-03T09:16:45.207Z,95950.97
2022-12-03T09:19:11.649Z,95951.22
2022-12-03T09:21:38.011Z,95962.34
2022-12-03T09:24:04.419Z,95967.66
2022-12-03T09:26:30.827Z,95954.56
2022-12-03T09:28:57.259Z,95956.94
2022-12-03T09:31:23.651Z,95962.72
2022-12-03T09:33:50.093Z,95957.00
2022-12-03T09:36:16.494Z,95956.16
2022-12-03T09:38:46.211Z,95955.28
2022-12-03T09:41:14.372Z,95959.03
2022-12-03T09:44:03.389Z,95953.50
2022-12-03T09:46:27.141Z,95958.53
2022-12-03T09:48:53.546Z,95938.50
2022-12-03T09:51:19.895Z,95944.25
2022-12-03T09:53:46.255Z,95954.63
2022-12-03T09:56:12.616Z,95956.09
2022-12-03T09:58:39.024Z,95963.06
2022-12-03T10:01:05.446Z,95958.72
2022-12-03T10:03:31.868Z,95963.34
2022-12-03T10:05:58.272Z,95973.97
2022-12-03T10:08:29.355Z,95962.41
2022-12-03T10:10:58.301Z,95958.81
2022-12-03T10:13:26.072Z,95955.81
2022-12-03T10:15:52.600Z,95947.75
2022-12-03T10:18:18.987Z,95944.69
2022-12-03T10:20:45.362Z,95941.53
2022-12-03T10:23:11.712Z,95923.97
2022-12-03T10:25:38.067Z,95927.06
2022-12-03T10:28:04.446Z,95942.56
2022-12-03T10:30:30.885Z,95922.16
2022-12-03T10:32:57.317Z,95929.06
2022-12-03T10:35:23.671Z,95929.75
2022-12-03T10:37:50.042Z,95922.53
2022-12-03T10:40:16.381Z,95917.81
2022-12-03T10:42:42.721Z,95912.78
2022-12-03T10:45:09.131Z,95929.78
2022-12-03T10:47:35.604Z,95911.59
2022-12-03T10:50:02.032Z,95912.75
2022-12-03T10:52:28.387Z,95909.84
2022-12-03T10:54:54.829Z,95906.91
2022-12-03T10:57:21.454Z,95903.91
2022-12-03T10:59:47.833Z,95899.16
2022-12-03T11:02:14.187Z,95903.94
2022-12-03T11:04:40.566Z,95908.22
2022-12-03T11:07:06.931Z,95896.13
2022-12-03T11:09:33.308Z,95888.31
2022-12-03T11:11:59.699Z,95886.88
2022-12-03T11:14:26.101Z,95901.78
2022-12-03T11:16:52.506Z,95909.41
2022-12-03T11:19:18.853Z,95901.53
2022-12-03T11:21:45.206Z,95896.41
2022-12-03T11:24:11.561Z,95912.69
2022-12-03T11:26:38.503Z,95911.31
2022-12-03T11:29:07.220Z,95910.44
2022-12-03T11:31:33.653Z,95903.88
2022-12-03T11:34:00.015Z,95913.34
2022-12-03T11:36:47.638Z,95903.50
2022-12-03T11:39:12.826Z,95910.00
2022-12-03T11:41:39.216Z,95906.25
2022-12-03T11:44:05.564Z,95899.44
2022-12-03T11:46:32.018Z,95897.66
2022-12-03T11:48:58.436Z,95904.22
2022-12-03T11:51:24.787Z,95901.69
2022-12-03T11:53:51.140Z,95901.06
2022-12-03T11:56:17.488Z,95906.78
2022-12-03T11:58:43.861Z,95916.34
2022-12-03T12:01:10.239Z,95910.34
2022-12-03T12:03:36.683Z,95905.63
2022-12-03T12:06:03.138Z,95902.38
2022-12-03T12:08:29.574Z,95898.38
2022-12-03T12:10:56.001Z,95890.94
2022-12-03T12:13:22.384Z,95878.78
2022-12-03T12:15:48.843Z,95884.69
2022-12-03T12:18:15.228Z,95876.06
2022-12-03T12:20:41.638Z,95874.16
2022-12-03T12:23:08.021Z,95870.28
2022-12-03T12:25:34.401Z,95859.41
2022-12-03T12:28:00.746Z,95865.03
2022-12-03T12:30:27.079Z,95855.84
2022-12-03T12:32:53.410Z,95870.06
2022-12-03T12:35:19.782Z,95865.72
2022-12-03T12:37:47.744Z,95861.13
2022-12-03T12:40:14.982Z,95858.28
2022-12-03T12:42:41.411Z,95854.16
2022-12-03T12:45:07.791Z,95851.34
2022-12-03T12:47:34.433Z,95837.97
2022-12-03T12:50:00.911Z,95833.47
2022-12-03T12:52:27.344Z,95834.53
2022-12-03T12:54:53.695Z,95831.19
2022-12-03T12:57:20.041Z,95845.72
2022-12-03T12:59:46.373Z,95848.47
2022-12-03T13:02:12.824Z,95843.94
2022-12-03T13:04:39.225Z,95847.81
2022-12-03T13:07:05.563Z,95850.81
2022-12-03T13:09:31.984Z,95841.19
2022-12-03T13:11:58.368Z,95848.03
2022-12-03T13:14:24.721Z,95832.94
2022-12-03T13:16:51.145Z,95839.59
2022-12-03T13:19:17.616Z,95835.53
2022-12-03T13:21:43.996Z,95831.91
2022-12-03T13:24:10.349Z,95834.53
2022-12-03T13:26:39.297Z,95842.78
2022-12-03T13:29:05.955Z,95841.44
2022-12-03T13:31:32.419Z,95836.09
2022-12-03T13:33:58.887Z,95835.78
2022-12-03T13:36:25.221Z,95834.50
2022-12-03T13:38:51.597Z,95831.41
2022-12-03T13:41:17.961Z,95837.38
2022-12-03T13:43:44.612Z,95828.63
2022-12-03T13:46:11.183Z,95821.34
2022-12-03T13:48:37.613Z,95824.41
2022-12-03T13:51:04.028Z,95815.34
2022-12-03T13:53:30.432Z,95821.03
2022-12-03T13:55:56.829Z,95821.03
2022-12-03T13:58:23.216Z,95820.53
2022-12-03T14:00:49.622Z,95815.91
2022-12-03T14:03:16.108Z,95813.88
2022-12-03T14:05:42.455Z,95811.72
2022-12-03T14:08:08.868Z,95813.19
2022-12-03T14:10:35.341Z,95809.53
2022-12-03T14:13:01.692Z,95814.94
2022-12-03T14:15:28.045Z,95824.19
2022-12-03T14:17:54.426Z,95811.72
2022-12-03T14:20:20.825Z,95805.81
2022-12-03T14:22:47.178Z,95810.22
2022-12-03T14:25:13.574Z,95806.09
2022-12-03T14:27:39.922Z,95811.13
2022-12-03T14:30:06.259Z,95810.91
2022-12-03T14:32:32.611Z,95800.25
2022-12-03T14:34:58.947Z,95808.53
2022-12-03T14:37:25.318Z,95810.56
2022-12-03T14:39:51.849Z,95801.63
2022-12-03T14:42:18.524Z,95808.47
2022-12-03T14:44:44.917Z,95799.28
2022-12-03T14:47:11.300Z,95799.75
2022-12-03T14:49:37.786Z,95802.88
2022-12-03T14:52:04.230Z,95803.84
2022-12-03T14:54:30.640Z,95806.25
2022-12-03T14:56:56.999Z,95799.78
2022-12-03T14:59:27.596Z,95795.75
2022-12-03T15:01:54.358Z,95798.50
2022-12-03T15:04:20.905Z,95802.88
2022-12-03T15:06:47.295Z,95788.34
2022-12-03T15:09:13.634Z,95798.13
2022-12-03T15:11:45.771Z,95792.31
2022-12-03T15:14:12.634Z,95798.78
2022-12-03T15:16:39.105Z,95805.47
2022-12-03T15:19:05.534Z,95797.63
2022-12-03T15:21:31.931Z,95798.81
2022-12-03T15:23:58.348Z,95797.81
2022-12-03T15:26:24.738Z,95800.56
2022-12-03T15:28:51.145Z,95792.44
2022-12-03T15:31:17.600Z,95796.84
2022-12-03T15:33:43.984Z,95795.38
2022-12-03T15:36:10.387Z,95800.44
2022-12-03T15:38:36.742Z,95805.94
2022-12-03T15:41:03.157Z,95793.56
2022-12-03T15:43:29.501Z,95789.06
2022-12-03T15:45:55.887Z,95791.91
2022-12-03T15:48:22.244Z,95784.78
2022-12-03T15:50:48.624Z,95793.34
2022-12-03T15:53:15.002Z,95789.84
2022-12-03T15:55:41.382Z,95795.00
2022-12-03T15:58:07.772Z,95804.59
2022-12-03T16:00:34.160Z,95790.25
2022-12-03T16:03:00.630Z,95796.22
2022-12-03T16:05:27.034Z,95795.97
2022-12-03T16:07:53.484Z,95792.69
2022-12-03T16:10:19.861Z,95801.88
2022-12-03T16:12:46.238Z,95795.81
2022-12-03T16:15:12.592Z,95802.97
2022-12-03T16:17:38.941Z,95793.06
2022-12-03T16:20:05.375Z,95807.59
2022-12-03T16:22:31.757Z,95796.53
2022-12-03T16:24:58.107Z,95794.69
2022-12-03T16:27:26.062Z,95805.63
2022-12-03T16:29:52.952Z,95804.88
2022-12-03T16:32:19.680Z,95791.31
2022-12-03T16:34:46.070Z,95793.97
2022-12-03T16:37:12.470Z,95788.34
2022-12-03T16:39:38.823Z,95794.91
2022-12-03T16:42:07.081Z,95786.28
2022-12-03T16:44:36.800Z,95792.38
2022-12-03T16:47:03.197Z,95786.97
2022-12-03T16:49:29.598Z,95797.94
2022-12-03T16:51:56.007Z,95788.53
2022-12-03T16:54:22.391Z,95779.72
2022-12-03T16:56:48.840Z,95777.66
2022-12-03T16:59:15.250Z,95783.19
2022-12-03T17:01:41.719Z,95784.91
2022-12-03T17:04:08.161Z,95787.41
2022-12-03T17:06:34.551Z,95784.31
2022-12-03T17:09:00.924Z,95784.91
2022-12-03T17:11:27.315Z,95790.00
2022-12-03T17:13:53.718Z,95777.06
2022-12-03T17:16:20.214Z,95772.59
2022-12-03T17:18:46.665Z,95773.16
2022-12-03T17:21:13.058Z,95777.97
2022-12-03T17:23:39.462Z,95774.25
2022-12-03T17:26:05.857Z,95783.31
2022-12-03T17:28:34.993Z,95771.03
2022-12-03T17:31:01.460Z,95771.47
2022-12-03T17:33:27.890Z,95777.88
2022-12-03T17:35:54.253Z,95784.16
2022-12-03T17:38:20.638Z,95782.63
2022-12-03T17:40:46.992Z,95780.97
2022-12-03T17:43:13.376Z,95774.31
2022-12-03T17:45:39.718Z,95786.25
2022-12-03T17:48:06.102Z,95783.59
2022-12-03T17:50:32.516Z,95777.94
2022-12-03T17:52:58.920Z,95775.88
2022-12-03T17:55:33.842Z,95779.50
2022-12-03T17:58:03.559Z,95785.34
2022-12-03T18:00:29.956Z,95785.56
2022-12-03T18:02:56.333Z,95784.50
2022-12-03T18:05:22.732Z,95794.25
2022-12-03T18:07:49.298Z,95783.25
2022-12-03T18:10:15.679Z,95785.94
2022-12-03T18:12:42.063Z,95781.44
2022-12-03T18:15:08.465Z,95788.97
2022-12-03T18:17:34.880Z,95784.03
2022-12-03T18:20:01.253Z,95784.75
2022-12-03T18:22:27.641Z,95770.78
2022-12-03T18:24:54.040Z,95774.66
2022-12-03T18:27:20.451Z,95780.28
2022-12-03T18:29:46.835Z,95771.00
2022-12-03T18:32:27.716Z,95776.66
2022-12-03T18:34:56.943Z,95774.53
2022-12-03T18:37:23.303Z,95780.41
2022-12-03T18:39:49.667Z,95777.09
2022-12-03T18:42:16.023Z,95763.91
2022-12-03T18:44:47.865Z,95764.47
2022-12-03T18:47:15.808Z,95777.44
2022-12-03T18:49:42.161Z,95779.72
2022-12-03T18:52:08.508Z,95767.63
2022-12-03T18:54:34.913Z,95763.22
2022-12-03T18:57:01.269Z,95759.78
2022-12-03T18:59:27.648Z,95771.50
2022-12-03T19:01:54.085Z,95775.38
2022-12-03T19:04:20.538Z,95770.66
2022-12-03T19:06:46.937Z,95777.69
2022-12-03T19:09:13.332Z,95781.16
2022-12-03T19:11:39.689Z,95777.59
2022-12-03T19:14:06.079Z,95776.69
2022-12-03T19:16:32.536Z,95775.81
2022-12-03T19:18:58.923Z,95772.41
2022-12-03T19:21:29.391Z,95784.81
2022-12-03T19:24:23.184Z,95791.03
2022-12-03T19:26:45.055Z,95781.16
2022-12-03T19:29:11.461Z,95780.63
2022-12-03T19:31:37.938Z,95784.06
2022-12-03T19:34:04.387Z,95775.88
2022-12-03T19:36:30.782Z,95764.88
2022-12-03T19:38:57.650Z,95762.00
2022-12-03T19:41:24.053Z,95771.31
2022-12-03T19:43:50.482Z,95764.53
2022-12-03T19:46:16.900Z,95759.25
2022-12-03T19:48:43.279Z,95757.56
2022-12-03T19:51:32.974Z,95753.97
2022-12-03T19:53:55.940Z,95764.59
2022-12-03T19:56:22.281Z,95756.22
2022-12-03T19:58:48.734Z,95747.34
2022-12-03T20:01:15.128Z,95747.13
2022-12-03T20:03:41.494Z,95752.66
2022-12-03T20:06:07.827Z,95757.94
2022-12-03T20:08:34.237Z,95758.69
2022-12-03T20:11:00.631Z,95745.56
2022-12-03T20:13:29.819Z,95747.00
2022-12-03T20:15:58.716Z,95748.22
2022-12-03T20:18:25.194Z,95759.81
2022-12-03T20:20:51.594Z,95756.84
2022-12-03T20:23:17.954Z,95766.06
2022-12-03T20:25:44.333Z,95762.75
2022-12-03T20:28:10.682Z,95767.47
2022-12-03T20:30:37.052Z,95768.06
2022-12-03T20:33:03.449Z,95768.78
2022-12-03T20:35:29.787Z,95769.34
2022-12-03T20:37:56.159Z,95770.16
2022-12-03T20:40:22.502Z,95762.50
2022-12-03T20:42:48.878Z,95769.03
2022-12-03T20:45:15.271Z,95769.63
2022-12-03T20:47:41.614Z,95779.31
2022-12-03T20:50:07.952Z,95776.41
2022-12-03T20:52:34.336Z,95781.44
2022-12-03T20:55:00.725Z,95787.09
2022-12-03T20:57:27.095Z,95777.31
2022-12-03T20:59:53.741Z,95769.66
2022-12-03T21:02:20.477Z,95774.78
2022-12-03T21:04:47.032Z,95767.91
2022-12-03T21:07:13.430Z,95777.72
2022-12-03T21:09:39.841Z,95790.03
2022-12-03T21:12:06.254Z,95786.56
2022-12-03T21:14:32.642Z,95780.19
2022-12-03T21:17:08.465Z,95784.97
2022-12-03T21:19:35.417Z,95786.97
2022-12-03T21:22:01.762Z,95798.69
2022-12-03T21:24:28.153Z,95800.56
2022-12-03T21:26:54.545Z,95815.31
2022-12-03T21:29:20.953Z,95823.09
2022-12-03T21:31:47.434Z,95816.63
2022-12-03T21:34:13.812Z,95819.66
2022-12-03T21:36:40.180Z,95820.94
2022-12-03T21:39:06.549Z,95833.50
2022-12-03T21:41:32.903Z,95818.50
2022-12-03T21:43:59.253Z,95816.63
2022-12-03T21:47:10.469Z,95809.44
2022-12-03T21:49:11.999Z,95811.25
2022-12-03T21:51:38.416Z,95808.13
2022-12-03T21:54:04.780Z,95797.19
2022-12-03T21:56:31.300Z,95802.28
2022-12-03T21:58:57.658Z,95796.97
2022-12-03T22:01:24.070Z,95792.59
2022-12-03T22:03:50.527Z,95781.44
2022-12-03T22:06:16.918Z,95781.19
2022-12-03T22:08:43.274Z,95775.22
2022-12-03T22:11:09.708Z,95779.09
2022-12-03T22:13:36.053Z,95760.94
2022-12-03T22:16:02.499Z,95742.06
2022-12-03T22:18:28.871Z,95728.16
2022-12-03T22:20:55.251Z,95745.06
2022-12-03T22:23:21.597Z,95738.06
2022-12-03T22:25:47.975Z,95739.13
2022-12-03T22:28:14.324Z,95741.63
2022-12-03T22:30:40.748Z,95740.16
2022-12-03T22:33:07.106Z,95728.00
2022-12-03T22:35:33.452Z,95737.72
2022-12-03T22:37:59.841Z,95751.97
2022-12-03T22:40:26.210Z,95743.91
2022-12-03T22:42:52.592Z,95740.06
2022-12-03T22:45:18.977Z,95747.28
2022-12-03T22:47:45.363Z,95764.13
2022-12-03T22:50:12.554Z,95758.75
2022-12-03T22:52:38.906Z,95751.41
2022-12-03T22:55:05.268Z,95750.81
2022-12-03T22:57:31.628Z,95755.50
2022-12-03T22:59:58.032Z,95761.16
2022-12-03T23:02:24.407Z,95755.28
2022-12-03T23:04:50.837Z,95767.19
2022-12-03T23:07:17.228Z,95758.81
2022-12-03T23:09:43.628Z,95759.28
2022-12-03T23:12:09.975Z,95765.06
2022-12-03T23:14:36.320Z,95768.41
2022-12-03T23:17:02.692Z,95767.38
2022-12-03T23:19:29.085Z,95767.22
2022-12-03T23:21:55.439Z,95769.88
2022-12-03T23:24:21.778Z,95765.91
2022-12-03T23:26:48.098Z,95761.16
2022-12-03T23:29:14.433Z,95768.28
2022-12-03T23:31:40.831Z,95756.78
2022-12-03T23:34:07.269Z,95744.34
2022-12-03T23:36:33.636Z,95748.44
2022-12-03T23:39:00.024Z,95759.50
2022-12-03T23:41:26.408Z,95749.34
2022-12-03T23:43:52.777Z,95752.41
2022-12-03T23:46:19.187Z,95754.47
2022-12-03T23:48:45.583Z,95752.81
2022-12-03T23:51:11.970Z,95749.03
2022-12-03T23:53:38.336Z,95739.34
2022-12-03T23:56:04.674Z,95733.72
2022-12-03T23:58:31.030Z,95734.63
